createdAt,value
2019-02-19T00:02:13.150Z,-4.66
2019-02-19T00:04:43.903Z,-4.77
2019-02-19T00:07:14.552Z,-4.73
2019-02-19T00:09:45.410Z,-4.77
2019-02-19T00:12:16.172Z,-4.70
2019-02-19T00:14:46.921Z,-4.73
2019-02-19T00:17:17.780Z,-4.77
2019-02-19T00:19:48.525Z,-4.88
2019-02-19T00:22:20.231Z,-4.81
2019-02-19T00:24:51.059Z,-4.92
2019-02-19T00:27:21.694Z,-4.88
2019-02-19T00:29:52.563Z,-4.91
2019-02-19T00:32:23.434Z,-4.94
2019-02-19T00:34:54.154Z,-4.90
2019-02-19T00:37:24.807Z,-4.93
2019-02-19T00:39:55.566Z,-5.12
2019-02-19T00:42:26.334Z,-5.12
2019-02-19T00:44:57.394Z,-5.10
2019-02-19T00:47:28.150Z,-5.07
2019-02-19T00:49:58.903Z,-5.07
2019-02-19T00:52:29.432Z,-5.01
2019-02-19T00:54:59.512Z,-4.99
2019-02-19T00:57:30.037Z,-5.00
2019-02-19T01:00:00.791Z,-4.99
2019-02-19T01:02:31.530Z,-5.04
2019-02-19T01:05:02.404Z,-5.02
2019-02-19T01:07:33.156Z,-4.90
2019-02-19T01:10:04.629Z,-4.82
2019-02-19T01:12:35.099Z,-4.84
2019-02-19T01:15:08.668Z,-4.84
2019-02-19T01:17:39.016Z,-4.96
2019-02-19T01:20:10.200Z,-4.88
2019-02-19T01:22:41.974Z,-5.01
2019-02-19T01:25:13.017Z,-5.14
2019-02-19T01:27:43.790Z,-5.12
2019-02-19T01:30:14.441Z,-5.22
2019-02-19T01:32:45.276Z,-5.31
2019-02-19T01:35:16.053Z,-5.30
2019-02-19T01:37:45.908Z,-5.44
2019-02-19T01:40:16.434Z,-5.48
2019-02-19T01:42:47.169Z,-5.38
2019-02-19T01:45:17.838Z,-5.42
2019-02-19T01:47:49.409Z,-5.33
2019-02-19T01:50:20.042Z,-5.15
2019-02-19T01:52:50.123Z,-5.29
2019-02-19T01:55:20.650Z,-5.44
2019-02-19T01:57:51.280Z,-5.53
2019-02-19T02:00:22.035Z,-5.61
2019-02-19T02:02:52.896Z,-5.60
2019-02-19T02:05:23.667Z,-5.69
2019-02-19T02:07:54.315Z,-5.76
2019-02-19T02:10:25.051Z,-5.82
2019-02-19T02:12:55.926Z,-5.88
2019-02-19T02:15:26.680Z,-5.86
2019-02-19T02:17:57.538Z,-5.91
2019-02-19T02:20:28.271Z,-5.81
2019-02-19T02:22:59.946Z,-5.54
2019-02-19T02:25:30.820Z,-5.39
2019-02-19T02:28:01.576Z,-5.55
2019-02-19T02:30:32.331Z,-5.60
2019-02-19T02:33:03.183Z,-5.76
2019-02-19T02:35:33.940Z,-5.78
2019-02-19T02:38:04.589Z,-5.87
2019-02-19T02:40:35.324Z,-5.93
2019-02-19T02:43:06.080Z,-5.95
2019-02-19T02:45:36.731Z,-5.93
2019-02-19T02:48:07.405Z,-5.99
2019-02-19T02:50:38.258Z,-5.89
2019-02-19T02:53:08.995Z,-5.78
2019-02-19T02:55:39.645Z,-5.80
2019-02-19T02:58:10.314Z,-5.66
2019-02-19T03:00:41.048Z,-5.66
2019-02-19T03:03:11.907Z,-5.81
2019-02-19T03:05:47.279Z,-5.94
2019-02-19T03:08:17.932Z,-6.03
2019-02-19T03:10:48.787Z,-6.04
2019-02-19T03:13:19.520Z,-6.01
2019-02-19T03:15:50.306Z,-6.06
2019-02-19T03:18:20.945Z,-6.02
2019-02-19T03:20:51.806Z,-5.96
2019-02-19T03:23:23.460Z,-5.96
2019-02-19T03:25:54.333Z,-6.11
2019-02-19T03:28:24.964Z,-6.01
2019-02-19T03:30:55.636Z,-6.00
2019-02-19T03:33:26.581Z,-6.06
2019-02-19T03:35:59.784Z,-6.02
2019-02-19T03:38:30.760Z,-5.99
2019-02-19T03:41:00.402Z,-5.86
2019-02-19T03:43:30.938Z,-5.81
2019-02-19T03:46:01.674Z,-6.01
2019-02-19T03:48:32.324Z,-6.25
2019-02-19T03:51:03.018Z,-6.34
2019-02-19T03:53:33.860Z,-6.32
2019-02-19T03:56:04.614Z,-6.26
2019-02-19T03:58:35.237Z,-6.27
2019-02-19T04:01:05.900Z,-6.35
2019-02-19T04:42:38.529Z,-6.44
2019-02-19T04:45:46.440Z,-6.27
2019-02-19T04:48:17.302Z,-6.37
2019-02-19T04:50:48.053Z,-6.30
2019-02-19T04:53:18.684Z,-6.36
2019-02-19T04:55:49.561Z,-6.26
2019-02-19T04:58:20.313Z,-6.30
2019-02-19T05:00:50.944Z,-6.26
2019-02-19T05:03:21.616Z,-6.16
2019-02-19T05:05:52.472Z,-5.99
2019-02-19T05:08:23.226Z,-5.74
2019-02-19T05:10:53.984Z,-5.62
2019-02-19T05:13:24.745Z,-5.45
2019-02-19T05:15:56.920Z,-5.38
2019-02-19T05:18:27.674Z,-5.11
2019-02-19T05:20:58.308Z,-4.88
2019-02-19T05:23:28.273Z,-4.72
2019-02-19T05:25:59.729Z,-4.65
2019-02-19T05:28:30.488Z,-4.58
2019-02-19T05:31:00.227Z,-4.41
2019-02-19T05:33:32.082Z,-4.25
2019-02-19T05:36:02.951Z,-4.08
2019-02-19T05:38:36.574Z,-3.99
2019-02-19T05:41:07.199Z,-3.82
2019-02-19T05:43:37.166Z,-3.64
2019-02-19T05:46:07.582Z,-3.37
2019-02-19T05:48:38.336Z,-3.32
2019-02-19T05:51:09.215Z,-3.31
2019-02-19T05:53:40.067Z,-3.10
2019-02-19T05:56:10.823Z,-2.94
2019-02-19T05:58:41.456Z,-2.60
2019-02-19T06:01:12.329Z,-2.46
2019-02-19T06:03:43.064Z,-2.37
2019-02-19T06:06:13.835Z,-2.07
2019-02-19T06:08:46.106Z,-2.00
2019-02-19T06:11:16.981Z,-1.81
2019-02-19T06:13:47.718Z,-1.62
2019-02-19T06:16:18.387Z,-1.55
2019-02-19T06:18:49.241Z,-1.52
2019-02-19T06:21:21.531Z,-1.40
2019-02-19T06:23:52.896Z,-1.31
2019-02-19T06:26:24.347Z,-1.25
2019-02-19T06:28:57.721Z,-1.20
2019-02-19T06:31:27.287Z,-1.10
2019-02-19T06:33:58.063Z,-0.96
2019-02-19T06:36:28.693Z,-0.69
2019-02-19T06:38:59.567Z,-0.61
2019-02-19T06:41:30.303Z,-0.66
2019-02-19T06:44:01.073Z,-0.50
2019-02-19T06:46:31.711Z,-0.39
2019-02-19T06:49:02.690Z,-0.38
2019-02-19T06:51:33.440Z,-0.28
2019-02-19T06:54:04.177Z,-0.14
2019-02-19T06:56:35.048Z,0.14
2019-02-19T06:59:05.906Z,0.17
2019-02-19T07:01:56.295Z,0.09
2019-02-19T07:04:28.462Z,0.06
2019-02-19T07:06:59.012Z,0.03
2019-02-19T07:09:29.903Z,0.31
2019-02-19T07:12:00.645Z,0.27
2019-02-19T07:14:31.391Z,0.31
2019-02-19T07:17:01.921Z,0.60
2019-02-19T07:19:32.797Z,0.70
2019-02-19T07:22:03.432Z,0.51
2019-02-19T07:24:34.204Z,0.64
2019-02-19T07:27:05.758Z,0.85
2019-02-19T07:29:36.537Z,1.12
2019-02-19T07:32:07.284Z,1.11
2019-02-19T07:34:38.138Z,1.26
2019-02-19T07:37:08.896Z,1.19
2019-02-19T07:39:39.527Z,1.37
2019-02-19T07:42:10.279Z,1.43
2019-02-19T07:44:41.155Z,1.50
2019-02-19T07:47:12.011Z,1.61
2019-02-19T07:49:41.859Z,1.75
2019-02-19T07:52:12.396Z,1.65
2019-02-19T07:54:43.153Z,1.47
2019-02-19T07:57:13.990Z,1.70
2019-02-19T07:59:44.740Z,1.63
2019-02-19T08:02:14.923Z,1.82
2019-02-19T08:04:45.447Z,2.04
2019-02-19T08:07:16.101Z,2.25
2019-02-19T08:09:46.050Z,2.32
2019-02-19T08:12:16.463Z,2.21
2019-02-19T08:14:46.645Z,2.34
2019-02-19T08:17:17.150Z,2.31
2019-02-19T08:19:48.858Z,2.40
2019-02-19T08:22:19.803Z,2.52
2019-02-19T08:24:50.555Z,2.57
2019-02-19T08:27:22.333Z,2.62
2019-02-19T08:29:53.087Z,2.75
2019-02-19T08:32:23.842Z,2.81
2019-02-19T08:34:54.575Z,3.00
2019-02-19T08:37:24.648Z,3.12
2019-02-19T08:39:55.062Z,3.10
2019-02-19T08:42:25.245Z,3.29
2019-02-19T08:44:55.649Z,3.28
2019-02-19T08:47:26.529Z,3.27
2019-02-19T08:49:58.075Z,2.98
2019-02-19T08:52:28.646Z,3.09
2019-02-19T08:54:59.401Z,3.21
2019-02-19T08:57:30.152Z,3.31
2019-02-19T09:00:01.015Z,3.74
2019-02-19T09:02:31.868Z,3.93
2019-02-19T09:05:02.499Z,4.08
2019-02-19T09:07:32.467Z,4.20
2019-02-19T09:10:02.879Z,4.45
2019-02-19T09:12:33.064Z,4.40
2019-02-19T09:15:03.571Z,4.77
2019-02-19T09:17:33.652Z,4.74
2019-02-19T09:20:05.199Z,4.87
2019-02-19T09:22:35.639Z,4.97
2019-02-19T09:25:08.424Z,4.92
2019-02-19T09:27:39.239Z,4.70
2019-02-19T09:30:12.387Z,4.75
2019-02-19T09:32:42.859Z,4.72
2019-02-19T09:35:12.917Z,4.64
2019-02-19T09:37:43.441Z,5.13
2019-02-19T09:40:13.503Z,5.24
2019-02-19T09:42:44.012Z,5.73
2019-02-19T09:45:13.979Z,5.68
2019-02-19T09:47:44.514Z,5.75
2019-02-19T09:50:15.249Z,5.59
2019-02-19T09:52:45.227Z,5.50
2019-02-19T09:55:15.861Z,5.44
2019-02-19T09:57:45.919Z,5.71
2019-02-19T10:00:16.322Z,5.67
2019-02-19T10:02:46.402Z,5.55
2019-02-19T10:05:17.240Z,5.83
2019-02-19T10:07:47.969Z,6.12
2019-02-19T10:10:19.058Z,6.13
2019-02-19T10:12:49.298Z,6.24
2019-02-19T10:15:19.353Z,5.96
2019-02-19T10:17:49.754Z,5.96
2019-02-19T10:20:20.431Z,5.88
2019-02-19T10:22:51.060Z,6.18
2019-02-19T10:25:21.142Z,6.42
2019-02-19T10:27:52.668Z,6.06
2019-02-19T10:30:23.347Z,6.08
2019-02-19T10:32:54.406Z,6.07
2019-02-19T10:35:24.352Z,7.12
2019-02-19T10:37:54.886Z,7.15
2019-02-19T10:40:24.838Z,6.43
2019-02-19T10:42:55.265Z,6.73
2019-02-19T10:45:26.950Z,6.91
2019-02-19T10:47:57.185Z,7.29
2019-02-19T10:50:27.248Z,6.98
2019-02-19T10:52:57.772Z,7.11
2019-02-19T10:55:28.525Z,7.85
2019-02-19T10:57:58.384Z,7.95
2019-02-19T11:00:28.910Z,7.81
2019-02-19T11:02:59.562Z,7.78
2019-02-19T11:05:29.413Z,7.20
2019-02-19T11:07:59.822Z,7.85
2019-02-19T11:10:30.573Z,7.43
2019-02-19T11:13:00.836Z,7.37
2019-02-19T11:15:31.491Z,7.73
2019-02-19T11:18:01.449Z,7.52
2019-02-19T11:20:31.973Z,7.24
2019-02-19T11:23:02.139Z,7.46
2019-02-19T11:25:32.668Z,6.97
2019-02-19T11:28:03.536Z,7.01
2019-02-19T11:30:33.371Z,7.09
2019-02-19T11:33:05.128Z,6.88
2019-02-19T11:35:35.354Z,6.99
2019-02-19T11:38:05.324Z,6.70
2019-02-19T11:40:35.856Z,7.21
2019-02-19T11:43:05.715Z,7.01
2019-02-19T11:45:36.238Z,6.93
2019-02-19T11:48:06.671Z,6.79
2019-02-19T11:50:36.753Z,7.02
2019-02-19T11:53:07.260Z,6.77
2019-02-19T11:55:38.187Z,6.50
2019-02-19T11:58:08.763Z,6.49
2019-02-19T12:00:40.276Z,6.58
2019-02-19T12:03:10.782Z,6.73
2019-02-19T12:05:41.435Z,6.41
2019-02-19T12:08:12.003Z,6.63
2019-02-19T12:10:42.063Z,6.60
2019-02-19T12:13:12.589Z,6.64
2019-02-19T12:15:42.549Z,6.43
2019-02-19T12:18:12.949Z,6.33
2019-02-19T12:20:42.821Z,6.46
2019-02-19T12:23:13.351Z,6.69
2019-02-19T12:25:43.420Z,6.79
2019-02-19T12:28:14.843Z,6.69
2019-02-19T12:30:45.513Z,6.38
2019-02-19T12:33:16.268Z,6.20
2019-02-19T12:35:46.217Z,6.53
2019-02-19T12:38:16.753Z,6.65
2019-02-19T12:40:46.817Z,6.33
2019-02-19T12:43:17.338Z,6.25
2019-02-19T12:45:47.299Z,6.22
2019-02-19T12:48:17.837Z,6.68
2019-02-19T12:50:48.659Z,6.61
2019-02-19T12:53:18.528Z,6.55
2019-02-19T12:55:49.064Z,6.10
2019-02-19T12:58:19.025Z,5.89
2019-02-19T13:00:49.547Z,5.94
2019-02-19T13:03:19.610Z,5.98
2019-02-19T13:05:50.033Z,5.88
2019-02-19T13:08:20.096Z,5.92
2019-02-19T13:10:50.622Z,5.78
2019-02-19T13:13:21.273Z,5.90
2019-02-19T13:15:51.232Z,5.77
2019-02-19T13:18:21.654Z,6.03
2019-02-19T13:20:51.515Z,5.99
2019-02-19T13:23:22.036Z,5.88
2019-02-19T13:25:52.099Z,5.84
2019-02-19T13:28:22.705Z,6.26
2019-02-19T13:30:53.362Z,5.97
2019-02-19T13:33:24.134Z,5.84
2019-02-19T13:35:54.886Z,5.65
2019-02-19T13:38:25.744Z,5.66
2019-02-19T13:40:55.807Z,5.31
2019-02-19T13:43:26.309Z,4.87
2019-02-19T13:45:58.603Z,4.54
2019-02-19T13:48:28.582Z,4.53
2019-02-19T13:50:59.104Z,4.43
2019-02-19T13:53:30.590Z,4.25
2019-02-19T13:56:02.030Z,3.96
2019-02-19T13:58:32.478Z,4.04
2019-02-19T14:01:02.340Z,3.79
2019-02-19T14:03:32.869Z,3.65
2019-02-19T14:06:02.836Z,3.54
2019-02-19T14:08:33.354Z,3.42
2019-02-19T14:11:03.905Z,3.33
2019-02-19T14:13:33.969Z,3.19
2019-02-19T14:16:09.201Z,3.13
2019-02-19T14:18:48.340Z,3.06
2019-02-19T14:21:35.666Z,3.01
2019-02-19T14:24:24.300Z,3.00
2019-02-19T14:27:13.070Z,2.90
2019-02-19T14:29:58.347Z,3.05
2019-02-19T14:32:33.600Z,2.91
2019-02-19T14:35:25.114Z,2.79
2019-02-19T14:38:13.646Z,2.67
2019-02-19T14:40:48.999Z,2.60
2019-02-19T14:43:39.823Z,2.60
2019-02-19T14:46:14.750Z,2.53
2019-02-19T14:49:02.397Z,2.47
2019-02-19T14:51:34.588Z,2.37
2019-02-19T14:54:06.870Z,2.28
2019-02-19T14:56:42.103Z,2.11
2019-02-19T14:59:17.460Z,2.23
2019-02-19T15:01:52.642Z,2.11
2019-02-19T15:04:27.785Z,2.02
2019-02-19T15:07:06.187Z,1.83
2019-02-19T15:09:41.441Z,1.72
2019-02-19T15:12:13.755Z,1.57
2019-02-19T15:15:04.023Z,1.63
2019-02-19T15:17:44.901Z,1.64
2019-02-19T15:20:33.070Z,1.43
2019-02-19T15:23:08.397Z,1.21
2019-02-19T15:29:19.732Z,1.07
2019-02-19T15:35:07.492Z,1.01
2019-02-19T15:37:48.497Z,0.80
2019-02-19T15:40:26.515Z,0.77
2019-02-19T15:42:58.900Z,0.63
2019-02-19T15:45:31.187Z,0.71
2019-02-19T15:48:21.679Z,0.60
2019-02-19T15:51:02.949Z,0.70
2019-02-19T15:53:41.171Z,0.58
2019-02-19T15:56:20.842Z,0.44
2019-02-19T15:58:59.041Z,0.38
2019-02-19T16:01:49.862Z,0.53
2019-02-19T16:04:34.101Z,0.37
2019-02-19T16:07:22.459Z,0.48
2019-02-19T16:09:54.756Z,0.35
2019-02-19T16:12:32.968Z,0.27
2019-02-19T16:15:20.518Z,0.17
2019-02-19T16:18:02.074Z,0.13
2019-02-19T16:20:37.349Z,0.01
2019-02-19T16:23:09.613Z,0.12
2019-02-19T16:25:56.834Z,0.00
2019-02-19T16:28:29.041Z,-0.05
2019-02-19T16:31:13.078Z,0.15
2019-02-19T16:33:46.502Z,0.20
2019-02-19T16:36:37.102Z,-0.03
2019-02-19T16:39:25.850Z,-0.20
2019-02-19T16:42:11.167Z,-0.37
2019-02-19T16:44:55.687Z,-0.07
2019-02-19T16:47:30.331Z,-0.10
2019-02-19T16:50:07.655Z,0.07
2019-02-19T16:52:42.658Z,0.10
2019-02-19T16:55:17.629Z,-0.18
2019-02-19T16:57:49.713Z,-0.20
2019-02-19T17:00:22.570Z,-0.42
2019-02-19T17:03:01.789Z,-0.45
2019-02-19T17:05:49.595Z,-0.51
2019-02-19T17:08:40.081Z,-0.52
2019-02-19T17:11:12.367Z,-0.66
2019-02-19T17:13:58.025Z,-0.55
2019-02-19T17:16:24.409Z,-0.47
2019-02-19T17:18:59.441Z,-0.69
2019-02-19T17:21:40.524Z,-0.63
2019-02-19T17:24:29.275Z,-0.42
2019-02-19T17:27:12.412Z,-0.53
2019-02-19T17:29:49.964Z,-0.73
2019-02-19T17:32:27.006Z,-0.79
2019-02-19T17:35:16.590Z,-0.64
2019-02-19T17:38:14.201Z,-0.74
2019-02-19T17:40:38.264Z,-0.57
2019-02-19T17:43:15.958Z,-0.49
2019-02-19T17:45:51.116Z,-0.47
2019-02-19T17:48:28.819Z,-0.70
2019-02-19T17:51:13.408Z,-0.69
2019-02-19T17:53:58.080Z,-0.53
2019-02-19T17:56:36.576Z,-0.73
2019-02-19T17:59:14.568Z,-0.80
2019-02-19T18:01:46.876Z,-0.81
2019-02-19T18:04:19.062Z,-0.87
2019-02-19T18:06:54.191Z,-0.74
2019-02-19T18:09:42.865Z,-0.99
2019-02-19T18:12:18.118Z,-1.02
2019-02-19T18:14:59.611Z,-1.11
2019-02-19T18:17:50.309Z,-0.94
2019-02-19T18:20:21.062Z,-0.84
2019-02-19T18:22:51.566Z,-0.78
2019-02-19T18:25:21.959Z,-0.94
2019-02-19T18:27:52.797Z,-0.88
2019-02-19T18:30:24.081Z,-0.97
2019-02-19T18:32:55.016Z,-0.92
2019-02-19T18:35:27.122Z,-1.16
2019-02-19T18:37:57.876Z,-1.09
2019-02-19T18:40:28.627Z,-1.14
2019-02-19T18:42:59.567Z,-1.12
2019-02-19T18:45:30.341Z,-1.26
2019-02-19T18:48:01.095Z,-1.32
2019-02-19T18:50:31.949Z,-1.34
2019-02-19T18:53:02.712Z,-1.39
2019-02-19T18:55:33.446Z,-1.39
2019-02-19T18:58:03.519Z,-1.44
2019-02-19T19:00:34.045Z,-1.29
2019-02-19T19:03:04.208Z,-1.28
2019-02-19T19:05:34.717Z,-1.48
2019-02-19T19:08:05.389Z,-1.54
2019-02-19T19:10:36.119Z,-1.41
2019-02-19T19:13:06.995Z,-1.49
2019-02-19T19:15:37.748Z,-1.59
2019-02-19T19:18:08.401Z,-1.48
2019-02-19T19:20:39.268Z,-1.36
2019-02-19T19:23:10.020Z,-1.40
2019-02-19T19:25:40.764Z,-1.34
2019-02-19T19:28:11.604Z,-1.38
2019-02-19T19:30:42.478Z,-1.28
2019-02-19T19:33:13.230Z,-1.33
2019-02-19T19:35:44.887Z,-1.43
2019-02-19T19:38:15.350Z,-1.29
2019-02-19T19:40:46.003Z,-1.32
2019-02-19T19:43:16.843Z,-1.24
2019-02-19T19:45:47.614Z,-1.14
2019-02-19T19:48:18.365Z,-1.33
2019-02-19T19:50:49.017Z,-1.36
2019-02-19T19:53:19.873Z,-1.41
2019-02-19T19:55:50.629Z,-1.55
2019-02-19T19:58:21.382Z,-1.65
2019-02-19T20:00:52.241Z,-1.73
2019-02-19T20:03:23.094Z,-1.74
2019-02-19T20:05:53.850Z,-1.88
2019-02-19T20:08:24.501Z,-1.69
2019-02-19T20:10:55.236Z,-1.73
2019-02-19T20:13:26.111Z,-1.80
2019-02-19T20:15:56.864Z,-1.88
2019-02-19T20:18:27.718Z,-1.45
2019-02-19T20:21:00.397Z,-1.56
2019-02-19T20:23:31.172Z,-1.60
2019-02-19T20:26:01.804Z,-1.36
2019-02-19T20:28:35.368Z,-1.33
2019-02-19T20:31:05.893Z,-1.48
2019-02-19T20:33:35.742Z,-1.38
2019-02-19T20:36:07.193Z,-1.47
2019-02-19T20:38:38.046Z,-1.41
2019-02-19T20:41:08.800Z,-1.29
2019-02-19T20:43:39.669Z,-1.51
2019-02-19T20:46:10.521Z,-1.64
2019-02-19T20:48:41.351Z,-1.79
2019-02-19T20:51:12.121Z,-1.52
2019-02-19T20:53:42.774Z,-1.68
2019-02-19T20:56:13.509Z,-1.68
2019-02-19T20:58:44.270Z,-1.64
2019-02-19T21:01:15.041Z,-1.29
2019-02-19T21:03:45.689Z,-1.23
2019-02-19T21:06:16.423Z,-1.48
2019-02-19T21:08:47.198Z,-1.34
2019-02-19T21:11:17.826Z,-1.47
2019-02-19T21:13:47.905Z,-1.36
2019-02-19T21:16:18.422Z,-1.33
2019-02-19T21:18:49.086Z,-1.52
2019-02-19T21:21:19.940Z,-1.66
2019-02-19T21:23:50.675Z,-1.50
2019-02-19T21:26:21.449Z,-1.66
2019-02-19T21:28:52.097Z,-1.67
2019-02-19T21:31:22.958Z,-1.54
2019-02-19T21:33:53.716Z,-1.76
2019-02-19T21:36:25.364Z,-1.57
2019-02-19T21:38:56.135Z,-1.58
2019-02-19T21:41:26.788Z,-1.58
2019-02-19T21:43:57.745Z,-1.42
2019-02-19T21:46:28.502Z,-1.50
2019-02-19T21:48:59.235Z,-1.64
2019-02-19T21:51:29.785Z,-1.68
2019-02-19T21:54:00.659Z,-1.75
2019-02-19T21:56:31.415Z,-1.84
2019-02-19T21:59:02.168Z,-1.75
2019-02-19T22:01:32.817Z,-1.93
2019-02-19T22:04:03.658Z,-2.03
2019-02-19T22:06:34.428Z,-1.96
2019-02-19T22:09:05.934Z,-2.05
2019-02-19T22:11:36.226Z,-2.22
2019-02-19T22:14:06.998Z,-2.11
2019-02-19T22:16:37.752Z,-2.15
2019-02-19T22:19:08.433Z,-2.02
2019-02-19T22:21:40.775Z,-2.10
2019-02-19T22:24:16.129Z,-2.13
2019-02-19T22:26:46.798Z,-2.10
2019-02-19T22:29:17.543Z,-2.16
2019-02-19T22:31:48.404Z,-2.28
2019-02-19T22:34:19.163Z,-2.28
2019-02-19T22:36:50.957Z,-2.28
2019-02-19T22:39:21.271Z,-2.34
2019-02-19T22:41:51.235Z,-2.56
2019-02-19T22:44:21.956Z,-2.64
2019-02-19T22:46:52.727Z,-2.59
2019-02-19T22:49:23.588Z,-2.51
2019-02-19T22:51:54.322Z,-2.74
2019-02-19T22:54:26.624Z,-2.40
2019-02-19T22:56:57.286Z,-2.47
2019-02-19T22:59:28.117Z,-2.53
2019-02-19T23:02:00.405Z,-2.50
2019-02-19T23:04:31.469Z,-2.52
2019-02-19T23:07:02.219Z,-2.49
2019-02-19T23:09:34.505Z,-2.59
2019-02-19T23:12:05.159Z,-2.67
2019-02-19T23:14:37.158Z,-2.71
2019-02-19T23:17:07.807Z,-2.88
2019-02-19T23:19:38.660Z,-2.60
2019-02-19T23:22:09.419Z,-2.65
2019-02-19T23:24:40.172Z,-2.72
2019-02-19T23:27:11.050Z,-2.59
2019-02-19T23:29:41.884Z,-2.63
2019-02-19T23:32:12.646Z,-2.64
2019-02-19T23:34:43.305Z,-2.77
2019-02-19T23:37:15.066Z,-2.76
2019-02-19T23:39:45.821Z,-2.71
2019-02-19T23:42:16.676Z,-2.73
2019-02-19T23:44:47.515Z,-2.75
2019-02-19T23:47:18.186Z,-2.72
2019-02-19T23:49:49.028Z,-2.52
2019-02-19T23:52:19.676Z,-2.80
2019-02-19T23:54:50.431Z,-2.94
2019-02-19T23:57:21.096Z,-2.96
2019-02-19T23:59:51.963Z,-2.92
